Worland, WY

1:23 AM MDT on September 16, 2014 (GMT -0600)
Worland Municipal | Change Station
CLOSE
Current Station
Airport
Location: Worland,
Elevation: 4226 ft
Nearby Weather Stations

Elev 4226 ft 43.97 °N, 107.95 °W | Updated 30 minutes ago

Clear
Clear
53 °F
Feels Like 53 °F
N
7
Wind Variable Wind from SSE

Today
High -- | Low -- °F
--% Chance of Precip.
Yesterday
High -- | Low -- °F
Precip. -- in
6:52 AM 7:20 PM
Waning Gibbous, 48% visible
Pressure 30.04 in
Visibility 10.0 miles
Clouds Clear
Dew Point 45 °F
Humidity 74%
Rainfall 0.00 in
Snow Depth Not available.
UV 0 out of 12
Pollen 5.50 out of 12
Air Quality Not available.
Flu Activity Not available.
METAR KWRL 160653Z AUTO 15006KT 10SM CLR 12/07 A3011 RMK AO2 SLP170 T01170072 402670028

More Conditions Fewer Conditions

Pressure 30.04 in
Visibility 10.0 miles
Clouds Clear
Dew Point 45 °F
Humidity 74%
Rainfall 0.00 in
Snow Depth Not available.
UV 0 out of 12
Pollen 5.50 out of 12
Air Quality Not available.
Flu Activity Not available.
METAR KWRL 160653Z AUTO 15006KT 10SM CLR 12/07 A3011 RMK AO2 SLP170 T01170072 402670028

More Conditions Fewer Conditions

10-Day Weather Forecast

Almanac

Astronomy

Sep. 16, 2014 Rise Set
Actual Time 6:52 AM MDT 7:20 PM MDT
Civil Twilight 6:23 AM MDT 7:49 PM MDT
Nautical Twilight 5:48 AM MDT 8:23 PM MDT
Astronomical Twilight 5:13 AM MDT 8:58 PM MDT
Moon No Moon Rise 2:55 PM MDT
Length of Visible Light 13h 25m
Length of Day
12h 28m
Tomorrow will be 3m 0s shorter.
Waning Gibbous, 48% of the Moon is Illuminated
Today
Waning Gibbous
Sep 24
New
Oct 1
First Quarter
Oct 8
Full
Oct 15
Last Quarter

Today's Extremes

State Highs State Lows

Community

WunderPhotos

Upload Photos

1,753,699 photos uploaded!

Nearby

Snow Depth

Station Depth Elevation
Spring Creek Divide 0 in 9000 ft
Salt River Summit 0 in 7600 ft
East Rim Divide 0 in 7930 ft
Snake River Station 0 in 6920 ft
Beartooth Lake 0 in 9275 ft

Earthquake Activity

City Distance Mag. Time & Date
No recent earthquake activity has been reported nearby.
Minimum magnitude displayed is 2.5.

Coastal Water Temperatures

Place Temperature
No Stations Reporting

Nearby Weather Stations